Current Weather

San Diego Intl

San Diego, California (KSAN)

Report from: Sunday, July 14, 2024 8:51 PM PDT
Current time: Sunday, July 14, 2024 9:27 PM PDT

Nearby weather – Weather history – Daily summaries
Weather forecast

Temperature20.6°C (69.1°F)
Dew point16.7°C (62.1°F)
Winds 3 kts (1.5 m/s, 3.5 mph) West-Northwest (300°)
Visibility10 mi. (16.1 km)
Clouds Few clouds 1,500 ft. (457 m)
Ceiling: Broken clouds 9,000 ft. (2,743 m)
Altimeter30.04 in.Hg (1017 mB)
Relative humidity78 %
Density altitude789 ft. (240 m)
Sea-level pressure101.7 kPa (1017 mB, 30.03 in.Hg)
Remarks System requires maintenance
Automated weather observing station with precipitation discriminator
Flight conditions Visual Meteorological Conditions
Raw dataKSAN 150351Z 30003KT 10SM FEW015 BKN090 21/17 A3004 RMK AO2 SLP170 T02060167 $
An error has occurred. This application may no longer respond until reloaded. Reload 🗙